Historyczne dane pomiarowe

Dodano dane terminowe – wersja testowa.

Dane z okresu 1951-2019

Wersja bazy: 1.34 [2019-03-16, lista zmian], aktualizacja planowana na 2019-04-15

Dane meteo z obszaru Polski uzyskane na podstawie danych udostępnionych przez Instytut Meteorologii i Gospodarki Wodnej – Państwowy Instytut Badawczy.

 

Wybierz Datę:    

       

TemperaturaWilgotnośćWiatrCiśnienieOpadyŚniegCzas trwania zjawisk
 Stacja t tx tn tng RH VA  wxwx mslp ppp RRR   cm mm wxwxwxwxwxwxwx
1999-08-14 14.2 18.4 9.6 8.3-- 6.7 2.3---- 4.3------------
1999-08-13 17.0 21.5 12.6 11.0-- 4.7 1.3---- 0.0------------
1999-08-12 17.4 22.4 13.1 12.0-- 4.3 2.0---- 0.0------------
1999-08-11 20.3 25.5 15.7 14.4-- 7.0 1.3---- 0.7------------
1999-08-10 21.9 28.5 15.7 13.0-- 5.3 2.0---- 14.2------------
1999-08-09 22.3 31.0 13.6 11.0-- 4.3 3.0---- 0.0------------
1999-08-08 19.3 26.0 13.1 9.5-- 7.7 2.3---- 0.0------------
1999-08-07 21.6 28.5 12.1 8.9-- 2.3 1.7---- 0.0------------
1999-08-06 19.8 28.0 11.1 8.9-- 5.0 1.0---- 0.0------------
1999-08-05 19.4 27.5 9.1 6.1-- 3.7 0.7---- 0.0------------
1999-08-04 19.1 26.0 8.6 5.0-- 2.7 0.7---- 0.0------------
1999-08-03 18.2 26.0 8.6 4.4-- 3.3 0.0---- 0.0------------
1999-08-02 18.7 26.0 9.6 4.4-- 4.3 1.3---- 0.0------------
1999-08-01 18.2 25.5 10.6 6.7-- 4.0 2.7---- 0.0------------
1999-07-31 20.4 26.5 11.6 9.5-- 1.3 3.7---- 0.0------------
1999-07-30 19.4 26.0 11.6 9.5-- 3.3 2.3---- 0.0------------
1999-07-29 18.2 24.5 10.0 6.1-- 3.0 2.7---- 0.0------------
1999-07-28 18.2 22.8 12.6 11.0-- 7.7 1.3---- 0.0------------
1999-07-27 19.2 24.5 13.6 13.0-- 5.3 1.3---- 0.0------------
1999-07-26 20.0 28.5 13.1 11.0-- 4.7 1.0---- 0.0------------
1999-07-25 19.5 26.0 11.1 6.7-- 1.7 1.3---- 0.0------------
1999-07-24 18.8 24.0 12.6 8.9-- 2.3 2.7---- 0.0------------
1999-07-23 16.3 21.0 9.6 6.7-- 7.3 1.3---- 0.0------------
1999-07-22 20.4 26.0 15.2 12.5-- 4.0 1.7---- 0.0------------
1999-07-21 22.7 29.0 13.1 10.5-- 4.3 3.0---- 0.0------------
1999-07-20 21.5 27.5 13.6 10.5-- 1.7 1.3---- 0.0------------
1999-07-19 21.6 28.0 14.2 12.0-- 3.3 2.0---- 0.0------------
1999-07-18 18.4 25.5 11.1 9.5-- 4.3 2.0---- 0.6------------
1999-07-17 16.7 23.0 8.1 6.7-- 3.7 1.3---- 0.0------------
1999-07-16 16.1 21.0 11.6 9.5-- 6.3 1.3---- 0.0------------
1999-07-15 16.8 21.2 13.6 13.0-- 8.0 1.3---- 10.5------------
1999-07-14 21.1 25.6 16.7 14.4-- 6.7 3.3---- 0.7------------
1999-07-13 22.5 30.0 14.2 11.0-- 4.7 1.7---- 0.0------------
1999-07-12 21.8 28.5 12.1 9.5-- 4.3 3.0---- 0.0------------
1999-07-11 20.8 27.5 11.6 7.8-- 1.0 2.3---- 0.0------------
1999-07-10 20.0 25.5 12.6 10.5-- 1.0 3.7---- 0.0------------
1999-07-09 19.9 25.5 14.2 13.9-- 6.0 4.3---- 0.0------------
1999-07-08 19.6 23.0 15.7 14.4-- 8.0 5.0---- 6.4------------
1999-07-07 21.8 28.0 17.2 15.9-- 8.0 3.0---- 0.0------------
1999-07-06 24.7 31.5 16.7 13.9-- 2.0 2.3---- 0.0------------
1999-07-05 25.1 31.0 17.8 15.4-- 0.7 1.3---- 0.0------------
1999-07-04 22.4 29.0 13.6 11.0-- 3.7 2.3---- 0.0------------
1999-07-03 18.5 23.0 12.6 10.5-- 4.0 0.7---- 0.0------------
1999-07-02 20.3 25.5 15.7 13.0-- 7.0 1.3---- 0.9------------
1999-07-01 19.9 25.5 11.6 10.0-- 4.3 2.0---- 0.0------------
1999-06-30 18.2 24.0 9.6 8.3 69.0- 3.0 0.7---- 0.0------------
1999-06-29 20.3 26.2 15.2 13.0 76.3- 5.0 3.3---- 0.0------------
1999-06-28 20.8 27.0 10.0 7.8 73.8- 2.3 0.7---- 0.0------------
1999-06-27 17.6 24.0 9.1 7.8 79.5- 0.0 0.0---- 0.0------------
1999-06-26 13.8 20.5 5.7 4.4 90.8- 4.7 0.0---- 0.0------------
1999-06-25 12.9 15.5 10.6 10.5 90.0- 7.0 2.0---- 5.9------------
1999-06-24 11.8 13.5 10.0 10.5 96.8- 8.0 2.0---- 9.6------------
1999-06-23 13.4 17.0 11.2 11.5 98.0- 8.0 4.0---- 9.3------------
1999-06-22 16.8 20.5 14.2 13.9 97.5- 7.7 2.7---- 10.0------------
1999-06-21 19.7 23.0 16.7 15.9 87.3- 7.3 0.0---- 5.9------------
1999-06-20 20.0 25.0 14.7 13.5 86.5- 6.3 0.7---- 0.0------------
1999-06-19 22.1 28.0 16.2 14.9 79.5- 5.0 0.7---- 0.0------------
1999-06-18 19.5 24.0 15.7 13.9 93.0- 6.3 0.7---- 0.7------------
1999-06-17 19.7 24.0 17.2 17.3 91.8- 8.0 0.7---- 0.2------------
1999-06-16 20.0 23.5 16.2 15.4 87.3- 7.0 2.3---- 0.0------------
332.4 ms

 

Źródłem pochodzenia danych jest Instytut Meteorologii i Gospodarki Wodnej – Państwowy Instytut Badawczy. Dane Instytutu Meteorologii i Gospodarki Wodnej – Państwowego Instytutu Badawczego zostały przetworzone.

Dane źródłowe można odnaleźć na stronie https://dane.imgw.pl